sensor_id;sensor_type;location;lat;lon;timestamp;P1;durP1;ratioP1;P2;durP2;ratioP2
3133;SDS011;1577;49.912;10.924;2023-05-07T00:02:20;5.27;;;3.33;;
3133;SDS011;1577;49.912;10.924;2023-05-07T00:04:46;4.23;;;3.33;;
3133;SDS011;1577;49.912;10.924;2023-05-07T00:07:12;4.60;;;3.47;;
3133;SDS011;1577;49.912;10.924;2023-05-07T00:09:37;9.00;;;3.23;;
3133;SDS011;1577;49.912;10.924;2023-05-07T00:12:03;4.73;;;3.30;;
3133;SDS011;1577;49.912;10.924;2023-05-07T00:14:29;5.10;;;3.50;;
3133;SDS011;1577;49.912;10.924;2023-05-07T00:16:55;6.70;;;4.33;;
3133;SDS011;1577;49.912;10.924;2023-05-07T00:19:20;5.77;;;3.73;;
3133;SDS011;1577;49.912;10.924;2023-05-07T00:21:46;7.43;;;4.67;;
3133;SDS011;1577;49.912;10.924;2023-05-07T00:24:11;5.57;;;3.63;;
3133;SDS011;1577;49.912;10.924;2023-05-07T00:26:37;5.10;;;4.13;;
3133;SDS011;1577;49.912;10.924;2023-05-07T00:29:03;5.20;;;3.23;;
3133;SDS011;1577;49.912;10.924;2023-05-07T00:31:28;5.20;;;4.07;;
3133;SDS011;1577;49.912;10.924;2023-05-07T00:33:54;4.60;;;3.70;;
3133;SDS011;1577;49.912;10.924;2023-05-07T00:36:19;4.70;;;3.60;;
3133;SDS011;1577;49.912;10.924;2023-05-07T00:38:45;4.70;;;3.50;;
3133;SDS011;1577;49.912;10.924;2023-05-07T00:41:10;6.37;;;3.47;;
3133;SDS011;1577;49.912;10.924;2023-05-07T00:43:36;5.60;;;4.13;;
3133;SDS011;1577;49.912;10.924;2023-05-07T00:46:02;4.80;;;3.40;;
3133;SDS011;1577;49.912;10.924;2023-05-07T00:48:28;8.53;;;3.77;;
3133;SDS011;1577;49.912;10.924;2023-05-07T00:50:53;4.40;;;3.50;;
3133;SDS011;1577;49.912;10.924;2023-05-07T00:53:19;4.07;;;3.40;;
3133;SDS011;1577;49.912;10.924;2023-05-07T00:55:46;4.17;;;3.17;;
3133;SDS011;1577;49.912;10.924;2023-05-07T00:58:11;3.70;;;3.10;;
3133;SDS011;1577;49.912;10.924;2023-05-07T01:00:37;5.33;;;3.50;;
3133;SDS011;1577;49.912;10.924;2023-05-07T01:03:03;7.33;;;3.57;;
3133;SDS011;1577;49.912;10.924;2023-05-07T01:05:29;4.57;;;3.33;;
3133;SDS011;1577;49.912;10.924;2023-05-07T01:07:55;6.27;;;3.73;;
3133;SDS011;1577;49.912;10.924;2023-05-07T01:10:22;3.50;;;2.83;;
3133;SDS011;1577;49.912;10.924;2023-05-07T01:12:49;4.00;;;2.90;;
3133;SDS011;1577;49.912;10.924;2023-05-07T01:15:15;6.70;;;3.80;;
3133;SDS011;1577;49.912;10.924;2023-05-07T01:17:42;7.83;;;3.50;;
3133;SDS011;1577;49.912;10.924;2023-05-07T01:20:08;4.60;;;3.93;;
3133;SDS011;1577;49.912;10.924;2023-05-07T01:22:35;4.87;;;4.13;;
3133;SDS011;1577;49.912;10.924;2023-05-07T01:25:03;7.17;;;4.23;;
3133;SDS011;1577;49.912;10.924;2023-05-07T01:27:29;5.70;;;3.90;;
3133;SDS011;1577;49.912;10.924;2023-05-07T01:29:55;8.17;;;4.33;;
3133;SDS011;1577;49.912;10.924;2023-05-07T01:32:23;5.00;;;3.90;;
3133;SDS011;1577;49.912;10.924;2023-05-07T01:34:55;5.07;;;3.90;;
3133;SDS011;1577;49.912;10.924;2023-05-07T01:37:22;4.40;;;3.93;;
3133;SDS011;1577;49.912;10.924;2023-05-07T01:39:49;4.83;;;3.63;;
3133;SDS011;1577;49.912;10.924;2023-05-07T01:42:15;4.97;;;3.70;;
3133;SDS011;1577;49.912;10.924;2023-05-07T01:44:40;4.43;;;4.00;;
3133;SDS011;1577;49.912;10.924;2023-05-07T01:47:06;5.80;;;4.10;;
3133;SDS011;1577;49.912;10.924;2023-05-07T01:49:33;4.97;;;4.00;;
3133;SDS011;1577;49.912;10.924;2023-05-07T01:51:59;6.17;;;4.10;;
3133;SDS011;1577;49.912;10.924;2023-05-07T01:54:26;4.77;;;3.77;;
3133;SDS011;1577;49.912;10.924;2023-05-07T01:56:58;4.43;;;3.70;;
3133;SDS011;1577;49.912;10.924;2023-05-07T01:59:25;4.30;;;3.67;;
3133;SDS011;1577;49.912;10.924;2023-05-07T02:01:50;5.00;;;3.53;;
3133;SDS011;1577;49.912;10.924;2023-05-07T02:04:16;4.93;;;3.60;;
3133;SDS011;1577;49.912;10.924;2023-05-07T02:06:42;7.90;;;5.03;;
3133;SDS011;1577;49.912;10.924;2023-05-07T02:09:08;4.87;;;3.90;;
3133;SDS011;1577;49.912;10.924;2023-05-07T02:11:34;6.00;;;3.97;;
3133;SDS011;1577;49.912;10.924;2023-05-07T02:13:59;4.80;;;3.93;;
3133;SDS011;1577;49.912;10.924;2023-05-07T02:16:25;5.13;;;3.70;;
3133;SDS011;1577;49.912;10.924;2023-05-07T02:18:51;4.60;;;3.70;;
3133;SDS011;1577;49.912;10.924;2023-05-07T02:21:16;4.93;;;3.80;;
3133;SDS011;1577;49.912;10.924;2023-05-07T02:23:42;4.50;;;3.70;;
3133;SDS011;1577;49.912;10.924;2023-05-07T02:26:08;6.77;;;3.17;;
3133;SDS011;1577;49.912;10.924;2023-05-07T02:28:33;4.20;;;3.07;;
3133;SDS011;1577;49.912;10.924;2023-05-07T02:31:02;3.87;;;3.37;;
3133;SDS011;1577;49.912;10.924;2023-05-07T02:33:28;6.13;;;3.90;;
3133;SDS011;1577;49.912;10.924;2023-05-07T02:35:54;5.07;;;3.20;;
3133;SDS011;1577;49.912;10.924;2023-05-07T02:38:20;4.87;;;3.50;;
3133;SDS011;1577;49.912;10.924;2023-05-07T02:40:45;6.50;;;3.80;;
3133;SDS011;1577;49.912;10.924;2023-05-07T02:43:11;5.27;;;3.90;;
3133;SDS011;1577;49.912;10.924;2023-05-07T02:45:36;4.43;;;3.87;;
3133;SDS011;1577;49.912;10.924;2023-05-07T02:48:02;5.60;;;4.03;;
3133;SDS011;1577;49.912;10.924;2023-05-07T02:50:28;6.43;;;4.33;;
3133;SDS011;1577;49.912;10.924;2023-05-07T02:52:55;5.20;;;4.10;;
3133;SDS011;1577;49.912;10.924;2023-05-07T02:55:20;5.73;;;4.03;;
3133;SDS011;1577;49.912;10.924;2023-05-07T02:57:46;4.97;;;4.10;;
3133;SDS011;1577;49.912;10.924;2023-05-07T03:00:16;5.03;;;4.20;;
3133;SDS011;1577;49.912;10.924;2023-05-07T03:02:43;6.23;;;4.40;;
3133;SDS011;1577;49.912;10.924;2023-05-07T03:05:09;5.27;;;4.30;;
3133;SDS011;1577;49.912;10.924;2023-05-07T03:07:36;5.87;;;4.30;;
3133;SDS011;1577;49.912;10.924;2023-05-07T03:10:02;9.83;;;4.60;;
3133;SDS011;1577;49.912;10.924;2023-05-07T03:12:28;6.90;;;4.53;;
3133;SDS011;1577;49.912;10.924;2023-05-07T03:14:54;5.80;;;4.43;;
3133;SDS011;1577;49.912;10.924;2023-05-07T03:17:20;5.97;;;4.33;;
3133;SDS011;1577;49.912;10.924;2023-05-07T03:19:46;5.53;;;4.20;;
3133;SDS011;1577;49.912;10.924;2023-05-07T03:22:12;5.00;;;4.17;;
3133;SDS011;1577;49.912;10.924;2023-05-07T03:24:37;5.60;;;4.40;;
3133;SDS011;1577;49.912;10.924;2023-05-07T03:27:03;8.47;;;4.33;;
3133;SDS011;1577;49.912;10.924;2023-05-07T03:29:28;5.90;;;4.30;;
3133;SDS011;1577;49.912;10.924;2023-05-07T03:31:54;6.53;;;4.90;;
3133;SDS011;1577;49.912;10.924;2023-05-07T03:34:20;8.20;;;5.77;;
3133;SDS011;1577;49.912;10.924;2023-05-07T03:36:48;7.70;;;5.00;;
3133;SDS011;1577;49.912;10.924;2023-05-07T03:39:14;7.57;;;4.37;;
3133;SDS011;1577;49.912;10.924;2023-05-07T03:41:39;6.37;;;5.17;;
3133;SDS011;1577;49.912;10.924;2023-05-07T03:44:05;7.67;;;5.53;;
3133;SDS011;1577;49.912;10.924;2023-05-07T03:46:30;8.90;;;5.80;;
3133;SDS011;1577;49.912;10.924;2023-05-07T03:48:57;7.93;;;5.53;;
3133;SDS011;1577;49.912;10.924;2023-05-07T03:51:23;7.47;;;5.23;;
3133;SDS011;1577;49.912;10.924;2023-05-07T03:53:49;7.90;;;5.37;;
3133;SDS011;1577;49.912;10.924;2023-05-07T03:56:17;8.20;;;5.40;;
3133;SDS011;1577;49.912;10.924;2023-05-07T03:58:43;6.20;;;5.47;;
3133;SDS011;1577;49.912;10.924;2023-05-07T04:01:09;6.60;;;5.20;;
3133;SDS011;1577;49.912;10.924;2023-05-07T04:03:35;6.57;;;5.73;;
3133;SDS011;1577;49.912;10.924;2023-05-07T04:06:00;8.90;;;6.77;;
3133;SDS011;1577;49.912;10.924;2023-05-07T04:08:26;8.40;;;6.37;;
3133;SDS011;1577;49.912;10.924;2023-05-07T04:10:55;10.87;;;6.47;;
3133;SDS011;1577;49.912;10.924;2023-05-07T04:13:21;9.83;;;6.47;;
3133;SDS011;1577;49.912;10.924;2023-05-07T04:15:46;8.17;;;6.17;;
3133;SDS011;1577;49.912;10.924;2023-05-07T04:18:14;7.00;;;6.00;;
3133;SDS011;1577;49.912;10.924;2023-05-07T04:20:39;8.53;;;6.83;;
3133;SDS011;1577;49.912;10.924;2023-05-07T04:23:05;8.43;;;6.27;;
3133;SDS011;1577;49.912;10.924;2023-05-07T04:25:31;8.60;;;6.40;;
3133;SDS011;1577;49.912;10.924;2023-05-07T04:27:57;8.50;;;6.10;;
3133;SDS011;1577;49.912;10.924;2023-05-07T04:30:23;7.57;;;6.30;;
3133;SDS011;1577;49.912;10.924;2023-05-07T04:32:49;8.97;;;7.77;;
3133;SDS011;1577;49.912;10.924;2023-05-07T04:35:14;8.13;;;6.83;;
3133;SDS011;1577;49.912;10.924;2023-05-07T04:37:40;11.17;;;7.90;;
3133;SDS011;1577;49.912;10.924;2023-05-07T04:40:06;10.97;;;7.60;;
3133;SDS011;1577;49.912;10.924;2023-05-07T04:42:32;11.00;;;7.87;;
3133;SDS011;1577;49.912;10.924;2023-05-07T04:44:57;9.10;;;7.13;;
3133;SDS011;1577;49.912;10.924;2023-05-07T04:47:23;9.73;;;7.53;;
3133;SDS011;1577;49.912;10.924;2023-05-07T04:49:49;10.67;;;7.60;;
3133;SDS011;1577;49.912;10.924;2023-05-07T04:52:14;9.73;;;7.10;;
3133;SDS011;1577;49.912;10.924;2023-05-07T04:54:40;11.43;;;8.47;;
3133;SDS011;1577;49.912;10.924;2023-05-07T04:57:06;10.27;;;8.23;;
3133;SDS011;1577;49.912;10.924;2023-05-07T04:59:32;9.07;;;7.20;;
3133;SDS011;1577;49.912;10.924;2023-05-07T05:01:57;9.83;;;7.10;;
3133;SDS011;1577;49.912;10.924;2023-05-07T05:04:23;10.50;;;8.03;;
3133;SDS011;1577;49.912;10.924;2023-05-07T05:06:49;11.37;;;8.50;;
3133;SDS011;1577;49.912;10.924;2023-05-07T05:09:15;10.20;;;7.43;;
3133;SDS011;1577;49.912;10.924;2023-05-07T05:11:41;9.00;;;7.40;;
3133;SDS011;1577;49.912;10.924;2023-05-07T05:14:06;9.47;;;7.50;;
3133;SDS011;1577;49.912;10.924;2023-05-07T05:16:32;8.50;;;6.90;;
3133;SDS011;1577;49.912;10.924;2023-05-07T05:18:57;9.07;;;7.33;;
3133;SDS011;1577;49.912;10.924;2023-05-07T05:21:23;10.80;;;7.40;;
3133;SDS011;1577;49.912;10.924;2023-05-07T05:23:49;8.83;;;6.73;;
3133;SDS011;1577;49.912;10.924;2023-05-07T05:26:15;12.30;;;6.87;;
3133;SDS011;1577;49.912;10.924;2023-05-07T05:28:40;7.63;;;5.80;;
3133;SDS011;1577;49.912;10.924;2023-05-07T05:31:06;8.10;;;5.87;;
3133;SDS011;1577;49.912;10.924;2023-05-07T05:33:31;6.40;;;5.27;;
3133;SDS011;1577;49.912;10.924;2023-05-07T05:35:57;10.40;;;5.50;;
3133;SDS011;1577;49.912;10.924;2023-05-07T05:38:22;7.27;;;5.30;;
3133;SDS011;1577;49.912;10.924;2023-05-07T05:40:48;8.57;;;5.20;;
3133;SDS011;1577;49.912;10.924;2023-05-07T05:43:14;8.50;;;5.23;;
3133;SDS011;1577;49.912;10.924;2023-05-07T05:45:39;7.50;;;4.90;;
3133;SDS011;1577;49.912;10.924;2023-05-07T05:48:05;8.10;;;6.00;;
3133;SDS011;1577;49.912;10.924;2023-05-07T05:50:31;8.83;;;5.90;;
3133;SDS011;1577;49.912;10.924;2023-05-07T05:52:56;7.50;;;5.60;;
3133;SDS011;1577;49.912;10.924;2023-05-07T05:55:22;7.30;;;5.87;;
3133;SDS011;1577;49.912;10.924;2023-05-07T05:57:48;7.63;;;5.13;;
3133;SDS011;1577;49.912;10.924;2023-05-07T06:00:15;7.53;;;5.00;;
3133;SDS011;1577;49.912;10.924;2023-05-07T06:02:41;5.80;;;4.60;;
3133;SDS011;1577;49.912;10.924;2023-05-07T06:05:07;7.37;;;5.83;;
3133;SDS011;1577;49.912;10.924;2023-05-07T06:07:33;6.93;;;5.37;;
3133;SDS011;1577;49.912;10.924;2023-05-07T06:09:59;9.10;;;5.20;;
3133;SDS011;1577;49.912;10.924;2023-05-07T06:12:25;7.50;;;5.60;;
3133;SDS011;1577;49.912;10.924;2023-05-07T06:14:51;5.90;;;4.87;;
3133;SDS011;1577;49.912;10.924;2023-05-07T06:17:17;5.80;;;5.00;;
3133;SDS011;1577;49.912;10.924;2023-05-07T06:19:43;7.23;;;5.07;;
3133;SDS011;1577;49.912;10.924;2023-05-07T06:22:08;6.00;;;5.20;;
3133;SDS011;1577;49.912;10.924;2023-05-07T06:24:34;7.03;;;5.20;;
3133;SDS011;1577;49.912;10.924;2023-05-07T06:27:00;7.30;;;5.10;;
3133;SDS011;1577;49.912;10.924;2023-05-07T06:29:25;9.90;;;5.70;;
3133;SDS011;1577;49.912;10.924;2023-05-07T06:31:52;9.13;;;5.33;;
3133;SDS011;1577;49.912;10.924;2023-05-07T06:34:18;6.07;;;5.10;;
3133;SDS011;1577;49.912;10.924;2023-05-07T06:36:43;7.43;;;5.40;;
3133;SDS011;1577;49.912;10.924;2023-05-07T06:39:09;6.53;;;5.13;;
3133;SDS011;1577;49.912;10.924;2023-05-07T06:41:34;7.90;;;5.20;;
3133;SDS011;1577;49.912;10.924;2023-05-07T06:44:01;7.63;;;5.20;;
3133;SDS011;1577;49.912;10.924;2023-05-07T06:46:27;6.80;;;4.40;;
3133;SDS011;1577;49.912;10.924;2023-05-07T06:48:53;7.50;;;5.10;;
3133;SDS011;1577;49.912;10.924;2023-05-07T06:51:19;7.40;;;5.70;;
3133;SDS011;1577;49.912;10.924;2023-05-07T06:53:44;6.43;;;5.07;;
3133;SDS011;1577;49.912;10.924;2023-05-07T06:56:10;6.53;;;5.03;;
3133;SDS011;1577;49.912;10.924;2023-05-07T06:58:36;6.47;;;5.30;;
3133;SDS011;1577;49.912;10.924;2023-05-07T07:01:02;6.53;;;5.10;;
3133;SDS011;1577;49.912;10.924;2023-05-07T07:03:28;6.27;;;5.20;;
3133;SDS011;1577;49.912;10.924;2023-05-07T07:05:54;6.63;;;5.37;;
3133;SDS011;1577;49.912;10.924;2023-05-07T07:08:20;6.23;;;4.93;;
3133;SDS011;1577;49.912;10.924;2023-05-07T07:10:46;6.63;;;5.00;;
3133;SDS011;1577;49.912;10.924;2023-05-07T07:13:12;6.30;;;5.20;;
3133;SDS011;1577;49.912;10.924;2023-05-07T07:15:38;7.20;;;5.23;;
3133;SDS011;1577;49.912;10.924;2023-05-07T07:18:05;6.43;;;4.50;;
3133;SDS011;1577;49.912;10.924;2023-05-07T07:20:31;8.53;;;5.40;;
3133;SDS011;1577;49.912;10.924;2023-05-07T07:22:56;6.70;;;5.07;;
3133;SDS011;1577;49.912;10.924;2023-05-07T07:25:22;5.40;;;4.37;;
3133;SDS011;1577;49.912;10.924;2023-05-07T07:27:48;7.40;;;4.80;;
3133;SDS011;1577;49.912;10.924;2023-05-07T07:30:14;6.80;;;5.07;;
3133;SDS011;1577;49.912;10.924;2023-05-07T07:32:40;7.57;;;4.90;;
3133;SDS011;1577;49.912;10.924;2023-05-07T07:35:06;6.10;;;4.63;;
3133;SDS011;1577;49.912;10.924;2023-05-07T07:37:32;6.23;;;5.47;;
3133;SDS011;1577;49.912;10.924;2023-05-07T07:39:57;8.97;;;5.30;;
3133;SDS011;1577;49.912;10.924;2023-05-07T07:42:23;5.80;;;4.93;;
3133;SDS011;1577;49.912;10.924;2023-05-07T07:44:49;5.20;;;4.13;;
3133;SDS011;1577;49.912;10.924;2023-05-07T07:47:15;8.03;;;5.33;;
3133;SDS011;1577;49.912;10.924;2023-05-07T07:49:40;5.50;;;4.13;;
3133;SDS011;1577;49.912;10.924;2023-05-07T07:52:06;8.83;;;4.80;;
3133;SDS011;1577;49.912;10.924;2023-05-07T07:54:31;6.20;;;5.07;;
3133;SDS011;1577;49.912;10.924;2023-05-07T07:56:57;6.13;;;4.90;;
3133;SDS011;1577;49.912;10.924;2023-05-07T07:59:23;5.97;;;4.60;;
3133;SDS011;1577;49.912;10.924;2023-05-07T08:01:49;6.97;;;5.10;;
3133;SDS011;1577;49.912;10.924;2023-05-07T08:04:17;5.40;;;4.50;;
3133;SDS011;1577;49.912;10.924;2023-05-07T08:06:42;6.60;;;4.83;;
3133;SDS011;1577;49.912;10.924;2023-05-07T08:09:08;5.60;;;4.40;;
3133;SDS011;1577;49.912;10.924;2023-05-07T08:11:33;7.50;;;4.37;;
3133;SDS011;1577;49.912;10.924;2023-05-07T08:13:59;6.03;;;4.40;;
3133;SDS011;1577;49.912;10.924;2023-05-07T08:16:25;5.10;;;4.47;;
3133;SDS011;1577;49.912;10.924;2023-05-07T08:18:50;5.33;;;4.40;;
3133;SDS011;1577;49.912;10.924;2023-05-07T08:21:16;6.60;;;4.30;;
3133;SDS011;1577;49.912;10.924;2023-05-07T08:23:42;6.63;;;4.60;;
3133;SDS011;1577;49.912;10.924;2023-05-07T08:26:08;5.20;;;4.27;;
3133;SDS011;1577;49.912;10.924;2023-05-07T08:28:33;5.70;;;4.17;;
3133;SDS011;1577;49.912;10.924;2023-05-07T08:30:59;5.43;;;4.43;;
3133;SDS011;1577;49.912;10.924;2023-05-07T08:33:26;6.83;;;4.60;;
3133;SDS011;1577;49.912;10.924;2023-05-07T08:35:51;5.03;;;3.77;;
3133;SDS011;1577;49.912;10.924;2023-05-07T08:38:17;7.30;;;4.50;;
3133;SDS011;1577;49.912;10.924;2023-05-07T08:40:43;6.20;;;4.10;;
3133;SDS011;1577;49.912;10.924;2023-05-07T08:43:08;8.00;;;4.50;;
3133;SDS011;1577;49.912;10.924;2023-05-07T08:45:37;4.80;;;3.97;;
3133;SDS011;1577;49.912;10.924;2023-05-07T08:48:08;4.30;;;3.90;;
3133;SDS011;1577;49.912;10.924;2023-05-07T08:50:39;5.10;;;4.00;;
3133;SDS011;1577;49.912;10.924;2023-05-07T08:53:05;5.43;;;3.93;;
3133;SDS011;1577;49.912;10.924;2023-05-07T08:55:30;5.00;;;3.87;;
3133;SDS011;1577;49.912;10.924;2023-05-07T08:57:56;5.00;;;4.20;;
3133;SDS011;1577;49.912;10.924;2023-05-07T09:00:22;5.20;;;4.10;;
3133;SDS011;1577;49.912;10.924;2023-05-07T09:02:47;4.53;;;3.90;;
3133;SDS011;1577;49.912;10.924;2023-05-07T09:05:13;6.17;;;3.93;;
3133;SDS011;1577;49.912;10.924;2023-05-07T09:07:39;6.30;;;4.17;;
3133;SDS011;1577;49.912;10.924;2023-05-07T09:10:05;4.60;;;3.87;;
3133;SDS011;1577;49.912;10.924;2023-05-07T09:12:31;5.63;;;4.53;;
3133;SDS011;1577;49.912;10.924;2023-05-07T09:14:58;5.10;;;4.10;;
3133;SDS011;1577;49.912;10.924;2023-05-07T09:17:24;5.47;;;4.10;;
3133;SDS011;1577;49.912;10.924;2023-05-07T09:19:49;4.50;;;3.77;;
3133;SDS011;1577;49.912;10.924;2023-05-07T09:22:15;5.00;;;3.60;;
3133;SDS011;1577;49.912;10.924;2023-05-07T09:24:41;5.67;;;3.50;;
3133;SDS011;1577;49.912;10.924;2023-05-07T09:27:17;5.70;;;4.23;;
3133;SDS011;1577;49.912;10.924;2023-05-07T09:29:43;4.53;;;3.50;;
3133;SDS011;1577;49.912;10.924;2023-05-07T09:32:12;4.73;;;3.80;;
3133;SDS011;1577;49.912;10.924;2023-05-07T09:34:40;4.83;;;3.70;;
3133;SDS011;1577;49.912;10.924;2023-05-07T09:37:06;4.87;;;3.60;;
3133;SDS011;1577;49.912;10.924;2023-05-07T09:39:42;3.90;;;3.30;;
3133;SDS011;1577;49.912;10.924;2023-05-07T09:42:12;6.47;;;3.33;;
3133;SDS011;1577;49.912;10.924;2023-05-07T09:44:40;4.47;;;3.30;;
3133;SDS011;1577;49.912;10.924;2023-05-07T09:47:06;4.10;;;3.33;;
3133;SDS011;1577;49.912;10.924;2023-05-07T09:49:33;5.20;;;3.30;;
3133;SDS011;1577;49.912;10.924;2023-05-07T09:52:01;3.80;;;2.93;;
3133;SDS011;1577;49.912;10.924;2023-05-07T09:54:30;5.17;;;2.40;;
3133;SDS011;1577;49.912;10.924;2023-05-07T09:56:58;3.80;;;2.83;;
3133;SDS011;1577;49.912;10.924;2023-05-07T09:59:27;3.50;;;2.97;;
3133;SDS011;1577;49.912;10.924;2023-05-07T10:01:55;4.53;;;2.80;;
3133;SDS011;1577;49.912;10.924;2023-05-07T10:04:23;3.60;;;3.30;;
3133;SDS011;1577;49.912;10.924;2023-05-07T10:06:50;3.67;;;3.30;;
3133;SDS011;1577;49.912;10.924;2023-05-07T10:09:15;4.07;;;3.20;;
3133;SDS011;1577;49.912;10.924;2023-05-07T10:11:42;3.00;;;2.70;;
3133;SDS011;1577;49.912;10.924;2023-05-07T10:14:08;4.90;;;3.30;;
3133;SDS011;1577;49.912;10.924;2023-05-07T10:16:35;4.30;;;3.30;;
3133;SDS011;1577;49.912;10.924;2023-05-07T10:19:02;4.50;;;3.40;;
3133;SDS011;1577;49.912;10.924;2023-05-07T10:21:29;4.93;;;3.33;;
3133;SDS011;1577;49.912;10.924;2023-05-07T10:24:04;5.93;;;3.40;;
3133;SDS011;1577;49.912;10.924;2023-05-07T10:26:51;4.37;;;3.20;;
3133;SDS011;1577;49.912;10.924;2023-05-07T10:29:24;4.40;;;2.90;;
3133;SDS011;1577;49.912;10.924;2023-05-07T10:32:02;4.00;;;3.20;;
3133;SDS011;1577;49.912;10.924;2023-05-07T10:34:49;3.67;;;3.00;;
3133;SDS011;1577;49.912;10.924;2023-05-07T10:37:18;3.57;;;2.50;;
3133;SDS011;1577;49.912;10.924;2023-05-07T10:39:44;3.97;;;2.80;;
3133;SDS011;1577;49.912;10.924;2023-05-07T10:42:10;3.10;;;2.67;;
3133;SDS011;1577;49.912;10.924;2023-05-07T10:44:37;2.77;;;2.30;;
3133;SDS011;1577;49.912;10.924;2023-05-07T10:47:09;2.70;;;2.07;;
3133;SDS011;1577;49.912;10.924;2023-05-07T10:49:37;4.30;;;3.10;;
3133;SDS011;1577;49.912;10.924;2023-05-07T10:52:15;2.77;;;2.43;;
3133;SDS011;1577;49.912;10.924;2023-05-07T10:54:42;4.77;;;3.30;;
3133;SDS011;1577;49.912;10.924;2023-05-07T10:57:32;2.53;;;2.20;;
3133;SDS011;1577;49.912;10.924;2023-05-07T11:00:40;3.70;;;2.73;;
3133;SDS011;1577;49.912;10.924;2023-05-07T11:03:25;2.80;;;2.50;;
3133;SDS011;1577;49.912;10.924;2023-05-07T11:05:44;4.23;;;2.50;;
3133;SDS011;1577;49.912;10.924;2023-05-07T11:08:10;3.03;;;2.27;;
3133;SDS011;1577;49.912;10.924;2023-05-07T11:10:51;3.83;;;2.47;;
3133;SDS011;1577;49.912;10.924;2023-05-07T11:16:17;3.23;;;2.93;;
3133;SDS011;1577;49.912;10.924;2023-05-07T11:18:51;3.40;;;3.10;;
3133;SDS011;1577;49.912;10.924;2023-05-07T11:21:34;3.53;;;2.67;;
3133;SDS011;1577;49.912;10.924;2023-05-07T11:24:02;4.63;;;3.10;;
3133;SDS011;1577;49.912;10.924;2023-05-07T11:26:41;3.40;;;2.60;;
3133;SDS011;1577;49.912;10.924;2023-05-07T11:29:25;3.07;;;2.53;;
3133;SDS011;1577;49.912;10.924;2023-05-07T11:31:52;3.10;;;2.23;;
3133;SDS011;1577;49.912;10.924;2023-05-07T11:34:22;2.80;;;2.30;;
3133;SDS011;1577;49.912;10.924;2023-05-07T11:36:49;3.23;;;2.93;;
3133;SDS011;1577;49.912;10.924;2023-05-07T11:39:24;3.40;;;2.70;;
3133;SDS011;1577;49.912;10.924;2023-05-07T11:41:51;3.10;;;2.13;;
3133;SDS011;1577;49.912;10.924;2023-05-07T11:44:16;4.30;;;2.43;;
3133;SDS011;1577;49.912;10.924;2023-05-07T11:46:42;3.70;;;2.30;;
3133;SDS011;1577;49.912;10.924;2023-05-07T11:49:09;3.60;;;2.80;;
3133;SDS011;1577;49.912;10.924;2023-05-07T11:51:35;2.50;;;2.20;;
3133;SDS011;1577;49.912;10.924;2023-05-07T11:54:03;2.70;;;2.30;;
3133;SDS011;1577;49.912;10.924;2023-05-07T11:56:33;3.60;;;2.40;;
3133;SDS011;1577;49.912;10.924;2023-05-07T11:59:00;3.30;;;2.40;;
3133;SDS011;1577;49.912;10.924;2023-05-07T12:01:26;4.57;;;2.90;;
3133;SDS011;1577;49.912;10.924;2023-05-07T12:03:51;3.93;;;3.30;;
3133;SDS011;1577;49.912;10.924;2023-05-07T12:06:17;4.00;;;2.93;;
3133;SDS011;1577;49.912;10.924;2023-05-07T12:08:44;3.70;;;2.60;;
3133;SDS011;1577;49.912;10.924;2023-05-07T12:11:13;4.13;;;3.03;;
3133;SDS011;1577;49.912;10.924;2023-05-07T12:13:42;3.23;;;2.93;;
3133;SDS011;1577;49.912;10.924;2023-05-07T12:16:07;4.63;;;3.17;;
3133;SDS011;1577;49.912;10.924;2023-05-07T12:18:35;3.97;;;3.03;;
3133;SDS011;1577;49.912;10.924;2023-05-07T12:21:01;4.97;;;3.33;;
3133;SDS011;1577;49.912;10.924;2023-05-07T12:23:27;2.93;;;2.50;;
3133;SDS011;1577;49.912;10.924;2023-05-07T12:25:53;4.20;;;3.00;;
3133;SDS011;1577;49.912;10.924;2023-05-07T12:28:19;4.33;;;2.87;;
3133;SDS011;1577;49.912;10.924;2023-05-07T12:30:45;4.13;;;2.67;;
3133;SDS011;1577;49.912;10.924;2023-05-07T12:33:34;3.60;;;2.53;;
3133;SDS011;1577;49.912;10.924;2023-05-07T12:36:02;2.90;;;2.40;;
3133;SDS011;1577;49.912;10.924;2023-05-07T12:38:33;3.30;;;2.60;;
3133;SDS011;1577;49.912;10.924;2023-05-07T12:41:03;3.20;;;2.87;;
3133;SDS011;1577;49.912;10.924;2023-05-07T12:43:29;3.43;;;2.67;;
3133;SDS011;1577;49.912;10.924;2023-05-07T12:45:56;3.23;;;2.87;;
3133;SDS011;1577;49.912;10.924;2023-05-07T12:48:25;3.40;;;2.90;;
3133;SDS011;1577;49.912;10.924;2023-05-07T12:50:55;4.80;;;3.27;;
3133;SDS011;1577;49.912;10.924;2023-05-07T12:53:23;7.10;;;3.70;;
3133;SDS011;1577;49.912;10.924;2023-05-07T12:55:50;3.70;;;2.93;;
3133;SDS011;1577;49.912;10.924;2023-05-07T13:00:50;3.70;;;2.90;;
3133;SDS011;1577;49.912;10.924;2023-05-07T13:03:29;6.87;;;3.67;;
3133;SDS011;1577;49.912;10.924;2023-05-07T13:05:57;3.70;;;2.90;;
3133;SDS011;1577;49.912;10.924;2023-05-07T13:08:28;4.90;;;2.80;;
3133;SDS011;1577;49.912;10.924;2023-05-07T13:10:58;3.23;;;2.67;;
3133;SDS011;1577;49.912;10.924;2023-05-07T13:13:28;4.77;;;3.23;;
3133;SDS011;1577;49.912;10.924;2023-05-07T13:15:54;3.80;;;3.00;;
3133;SDS011;1577;49.912;10.924;2023-05-07T13:18:20;4.10;;;3.00;;
3133;SDS011;1577;49.912;10.924;2023-05-07T13:20:45;3.43;;;2.40;;
3133;SDS011;1577;49.912;10.924;2023-05-07T13:23:11;4.53;;;2.57;;
3133;SDS011;1577;49.912;10.924;2023-05-07T13:25:36;3.23;;;2.60;;
3133;SDS011;1577;49.912;10.924;2023-05-07T13:28:02;2.43;;;2.00;;
3133;SDS011;1577;49.912;10.924;2023-05-07T13:30:29;2.90;;;2.60;;
3133;SDS011;1577;49.912;10.924;2023-05-07T13:32:58;3.73;;;2.53;;
3133;SDS011;1577;49.912;10.924;2023-05-07T13:35:23;2.97;;;2.67;;
3133;SDS011;1577;49.912;10.924;2023-05-07T13:37:49;3.53;;;2.73;;
3133;SDS011;1577;49.912;10.924;2023-05-07T13:40:18;3.10;;;2.40;;
3133;SDS011;1577;49.912;10.924;2023-05-07T13:42:47;3.57;;;2.70;;
3133;SDS011;1577;49.912;10.924;2023-05-07T13:45:12;3.00;;;2.43;;
3133;SDS011;1577;49.912;10.924;2023-05-07T13:47:39;3.00;;;2.47;;
3133;SDS011;1577;49.912;10.924;2023-05-07T13:50:06;4.00;;;2.40;;
3133;SDS011;1577;49.912;10.924;2023-05-07T13:52:32;3.50;;;2.47;;
3133;SDS011;1577;49.912;10.924;2023-05-07T13:54:58;6.63;;;2.80;;
3133;SDS011;1577;49.912;10.924;2023-05-07T13:57:23;3.83;;;2.43;;
3133;SDS011;1577;49.912;10.924;2023-05-07T13:59:49;4.70;;;2.50;;
3133;SDS011;1577;49.912;10.924;2023-05-07T14:02:15;3.03;;;2.17;;
3133;SDS011;1577;49.912;10.924;2023-05-07T14:04:41;3.97;;;2.30;;
3133;SDS011;1577;49.912;10.924;2023-05-07T14:07:06;3.03;;;2.43;;
3133;SDS011;1577;49.912;10.924;2023-05-07T14:09:32;3.40;;;2.60;;
3133;SDS011;1577;49.912;10.924;2023-05-07T14:11:58;3.30;;;2.20;;
3133;SDS011;1577;49.912;10.924;2023-05-07T14:14:24;3.50;;;2.43;;
3133;SDS011;1577;49.912;10.924;2023-05-07T14:16:50;3.20;;;2.30;;
3133;SDS011;1577;49.912;10.924;2023-05-07T14:19:15;2.80;;;2.00;;
3133;SDS011;1577;49.912;10.924;2023-05-07T14:21:41;2.63;;;2.33;;
3133;SDS011;1577;49.912;10.924;2023-05-07T14:24:07;3.20;;;2.43;;
3133;SDS011;1577;49.912;10.924;2023-05-07T14:26:35;4.50;;;2.80;;
3133;SDS011;1577;49.912;10.924;2023-05-07T14:29:01;3.37;;;2.53;;
3133;SDS011;1577;49.912;10.924;2023-05-07T14:31:27;4.27;;;2.80;;
3133;SDS011;1577;49.912;10.924;2023-05-07T14:33:53;3.50;;;2.47;;
3133;SDS011;1577;49.912;10.924;2023-05-07T14:36:19;3.93;;;2.70;;
3133;SDS011;1577;49.912;10.924;2023-05-07T14:38:46;4.53;;;2.23;;
3133;SDS011;1577;49.912;10.924;2023-05-07T14:41:12;3.30;;;2.47;;
3133;SDS011;1577;49.912;10.924;2023-05-07T14:43:38;4.80;;;3.17;;
3133;SDS011;1577;49.912;10.924;2023-05-07T14:46:03;2.70;;;2.30;;
3133;SDS011;1577;49.912;10.924;2023-05-07T14:48:29;3.20;;;2.20;;
3133;SDS011;1577;49.912;10.924;2023-05-07T14:50:55;2.77;;;1.80;;
3133;SDS011;1577;49.912;10.924;2023-05-07T14:53:21;3.97;;;2.37;;
3133;SDS011;1577;49.912;10.924;2023-05-07T14:55:47;4.30;;;2.70;;
3133;SDS011;1577;49.912;10.924;2023-05-07T14:58:13;4.97;;;2.70;;
3133;SDS011;1577;49.912;10.924;2023-05-07T15:00:39;3.53;;;2.17;;
3133;SDS011;1577;49.912;10.924;2023-05-07T15:03:08;3.70;;;2.53;;
3133;SDS011;1577;49.912;10.924;2023-05-07T15:05:35;2.83;;;2.40;;